Главная страница
METAR-TAF:

METAR-TAF

Аэропорты :

Рёрус, Норвегия

широта: 62-35N, долгота: 011-21E, высота над уровнем моря: 626 м

Текущие метеонаблюдения

Эта сводка был подготовлена 24 минут назад, в 18:50 UTC
Штиль
Температура 15°C
Влажность 82%
Давление 1007 hPa
Видимость 10 км и более

METAR: ENRO 251850Z AUTO 00000KT 9999 FEW066/// SCT082/// 15/12 Q1007

Время: 21:14 (19:14 UTC)

Прогноз

Эта сводка был подготовлена 8 часа и 14 минут назад, в 11:00 UTC
Прогноз действительный с 25-го 12 UTC до 25-го 18 UTC
Ветер 3 Узел от восточно-юго-восточный
Видимость 10 км и более
небольшая облачность на высоте 1500 фута
Рассеянная облачность на высоте 3000 фута
временами
С 25-го 12 UTC до 25-го 15 UTC
Рассеянная облачность на высоте 1200 фута
небольшая облачность на высоте 2000 фута, мощно-кучевые.
ливневые дожди,

TAF: ENRO 251100Z 2512/2518 12003KT 9999 FEW015 BKN030 TEMPO 2512/2515 SHRA BKN012 FEW020TCU

Метеонаблюдения и прогнозы для более 4000 аэропортов (сводки METAR и TAF).

Имеющиеся станции представлены на карте желтыми и красными точками.

Чтобы увидеть название станции, наведите на нее мышь.

Затем щелкните, чтобы увидеть метеонаблюдения и метеопрогнозы.

Управление картой: чтобы увеличить масштаб, щелкните зеленые кнопки с черным крестиком; чтобы уменьшить масштаб, щелкните зеленую кнопку с тире; для просмотра соседних карт щелкайте зеленые стрелки.


METAR-TAF: